Wetterdaten: Woche 08.05.06 - 14.05.06 (KW19)
Datum Zeit Temperatur Luftfeuchte Luftdruck Niederschlag Windrichtung Wind
08.05.2006 00:00 11,6 C 50 % 0 hPa 0,0 l/m N-NO 9,6 km/h (2 Bft)
08.05.2006 01:00 10,7 C 53 % 0 hPa 0,0 l/m N-NO 8,5 km/h (2 Bft)
08.05.2006 02:00 9,8 C 56 % 0 hPa 0,0 l/m N 7,6 km/h (2 Bft)
08.05.2006 03:00 9,0 C 60 % 0 hPa 0,0 l/m N 7,9 km/h (2 Bft)
08.05.2006 04:00 8,4 C 64 % 0 hPa 0,0 l/m N 5,0 km/h (1 Bft)
08.05.2006 05:00 7,7 C 69 % 0 hPa 0,0 l/m N-NW 9,3 km/h (2 Bft)
08.05.2006 06:00 7,6 C 72 % 0 hPa 0,0 l/m N 7,6 km/h (2 Bft)
08.05.2006 07:00 8,5 C 70 % 0 hPa 0,0 l/m N 7,9 km/h (2 Bft)
08.05.2006 08:00 10,2 C 63 % 0 hPa 0,0 l/m N-NO 11,0 km/h (2 Bft)
08.05.2006 09:00 12,6 C 56 % 0 hPa 0,0 l/m N-NO 10,2 km/h (2 Bft)
08.05.2006 10:00 15,1 C 48 % 0 hPa 0,0 l/m O 10,1 km/h (2 Bft)
08.05.2006 11:00 16,4 C 46 % 0 hPa 0,0 l/m N 7,1 km/h (2 Bft)
08.05.2006 12:00 17,5 C 44 % 0 hPa 0,0 l/m O 6,3 km/h (2 Bft)
08.05.2006 13:00 19,0 C 42 % 0 hPa 0,0 l/m N-NO 8,1 km/h (2 Bft)
08.05.2006 14:00 20,1 C 39 % 0 hPa 0,0 l/m NO 7,7 km/h (2 Bft)
08.05.2006 15:00 21,1 C 37 % 0 hPa 0,0 l/m O 10,2 km/h (2 Bft)
08.05.2006 16:00 20,1 C 36 % 0 hPa 0,0 l/m O 13,7 km/h (3 Bft)
08.05.2006 17:00 15,2 C 65 % 0 hPa 0,0 l/m SW 11,0 km/h (2 Bft)
08.05.2006 18:00 13,1 C 84 % 0 hPa 0,0 l/m W 4,7 km/h (1 Bft)
08.05.2006 19:00 13,2 C 89 % 0 hPa 0,0 l/m S 1,9 km/h (1 Bft)
08.05.2006 20:00 12,6 C 91 % 0 hPa 0,0 l/m W 1,0 km/h (0 Bft)
08.05.2006 21:00 12,1 C 92 % 0 hPa 0,0 l/m N 0,0 km/h (0 Bft)
08.05.2006 22:00 11,6 C 94 % 0 hPa 0,0 l/m N 0,3 km/h (0 Bft)
08.05.2006 23:00 11,5 C 95 % 0 hPa 0,0 l/m N-NW 0,3 km/h (0 Bft)
09.05.2006 00:00 11,5 C 95 % 0 hPa 0,0 l/m NW 0,2 km/h (0 Bft)
09.05.2006 01:00 11,2 C 93 % 0 hPa 0,0 l/m N 0,0 km/h (0 Bft)
09.05.2006 02:00 11,0 C 93 % 0 hPa 0,0 l/m W-SW 8,1 km/h (2 Bft)
09.05.2006 03:00 10,3 C 88 % 0 hPa 0,0 l/m S-SW 14,7 km/h (3 Bft)
09.05.2006 04:00 8,5 C 82 % 0 hPa 0,0 l/m S-SW 23,1 km/h (4 Bft)
09.05.2006 05:00 7,3 C 83 % 0 hPa 0,0 l/m W-SW 22,0 km/h (4 Bft)
09.05.2006 06:00 6,1 C 88 % 0 hPa 0,0 l/m SW 21,9 km/h (4 Bft)
09.05.2006 07:00 5,1 C 90 % 0 hPa 0,0 l/m W-SW 20,6 km/h (4 Bft)
09.05.2006 08:00 4,6 C 93 % 0 hPa 0,0 l/m S-SW 17,5 km/h (3 Bft)
09.05.2006 09:00 4,5 C 96 % 0 hPa 0,0 l/m SW 13,6 km/h (3 Bft)
09.05.2006 10:00 4,9 C 97 % 0 hPa 0,0 l/m S-SW 17,0 km/h (3 Bft)
09.05.2006 11:00 5,3 C 92 % 0 hPa 0,0 l/m S-SW 15,7 km/h (3 Bft)
09.05.2006 12:00 6,2 C 89 % 0 hPa 0,0 l/m SW 13,8 km/h (3 Bft)
09.05.2006 13:00 6,9 C 88 % 0 hPa 0,0 l/m W-SW 12,4 km/h (3 Bft)
09.05.2006 14:00 7,3 C 88 % 0 hPa 0,0 l/m W-SW 11,7 km/h (2 Bft)
09.05.2006 15:00 7,5 C 93 % 0 hPa 0,0 l/m W-SW 10,1 km/h (2 Bft)
09.05.2006 16:00 8,0 C 92 % 0 hPa 0,0 l/m W-SW 9,0 km/h (2 Bft)
09.05.2006 17:00 8,3 C 90 % 0 hPa 0,0 l/m W-SW 8,4 km/h (2 Bft)
09.05.2006 18:00 8,6 C 88 % 0 hPa 0,0 l/m SW 6,0 km/h (2 Bft)
09.05.2006 19:00 8,5 C 93 % 0 hPa 0,0 l/m S 10,4 km/h (2 Bft)
09.05.2006 20:00 8,2 C 96 % 0 hPa 0,0 l/m S-SW 10,1 km/h (2 Bft)
09.05.2006 21:00 7,9 C 98 % 0 hPa 0,0 l/m S-SW 9,9 km/h (2 Bft)
09.05.2006 22:00 7,8 C 98 % 0 hPa 0,0 l/m S-SW 9,7 km/h (2 Bft)
09.05.2006 23:00 7,5 C 98 % 0 hPa 0,0 l/m W-SW 9,5 km/h (2 Bft)
10.05.2006 00:00 7,4 C 98 % 0 hPa 0,0 l/m SW 7,6 km/h (2 Bft)
10.05.2006 01:00 7,2 C 99 % 0 hPa 0,0 l/m S-SW 7,7 km/h (2 Bft)
10.05.2006 02:00 7,1 C 100 % 0 hPa 0,0 l/m S-SW 6,1 km/h (2 Bft)
10.05.2006 03:00 7,0 C 100 % 0 hPa 0,0 l/m S-SW 6,1 km/h (2 Bft)
10.05.2006 04:00 7,1 C 100 % 0 hPa 0,0 l/m S 5,7 km/h (1 Bft)
10.05.2006 05:00 7,0 C 100 % 0 hPa 0,0 l/m S 4,0 km/h (1 Bft)
10.05.2006 06:00 6,8 C 100 % 0 hPa 0,0 l/m S 4,0 km/h (1 Bft)
10.05.2006 07:00 7,1 C 100 % 0 hPa 0,0 l/m O 1,6 km/h (1 Bft)
10.05.2006 08:00 8,0 C 96 % 0 hPa 0,0 l/m O-NO 3,7 km/h (1 Bft)
10.05.2006 09:00 8,9 C 83 % 0 hPa 0,0 l/m N-NO 8,3 km/h (2 Bft)
10.05.2006 10:00 10,6 C 75 % 0 hPa 0,0 l/m N-NO 7,3 km/h (2 Bft)
10.05.2006 11:00 12,4 C 66 % 0 hPa 0,0 l/m O-NO 14,1 km/h (3 Bft)
10.05.2006 12:00 14,0 C 60 % 0 hPa 0,0 l/m N-NO 16,5 km/h (3 Bft)
10.05.2006 13:00 15,5 C 55 % 0 hPa 0,0 l/m NO 20,4 km/h (4 Bft)
10.05.2006 14:00 16,1 C 53 % 0 hPa 0,0 l/m N-NO 20,4 km/h (4 Bft)
10.05.2006 15:00 16,4 C 53 % 0 hPa 0,0 l/m N-NO 19,5 km/h (3 Bft)
10.05.2006 16:00 16,6 C 52 % 822 hPa 0,0 l/m N-NO 20,9 km/h (4 Bft)
10.05.2006 17:00 16,7 C 53 % 1014 hPa 0,0 l/m N-NO 16,3 km/h (3 Bft)
10.05.2006 18:00 16,0 C 56 % 1014 hPa 0,0 l/m N-NO 16,8 km/h (3 Bft)
10.05.2006 19:00 15,0 C 60 % 1015 hPa 0,0 l/m N-NO 10,6 km/h (2 Bft)
10.05.2006 20:00 13,8 C 64 % 1015 hPa 0,0 l/m N-NO 8,4 km/h (2 Bft)
10.05.2006 21:00 11,7 C 71 % 1015 hPa 0,0 l/m N 0,8 km/h (0 Bft)
10.05.2006 22:00 10,0 C 79 % 1016 hPa 0,0 l/m NW 0,2 km/h (0 Bft)
10.05.2006 23:00 9,3 C 84 % 1016 hPa 0,0 l/m W-NW 1,0 km/h (0 Bft)
11.05.2006 00:00 9,0 C 87 % 1016 hPa 0,0 l/m W-NW 0,5 km/h (0 Bft)
11.05.2006 01:00 8,8 C 89 % 1016 hPa 0,0 l/m W 1,6 km/h (1 Bft)
11.05.2006 02:00 8,5 C 90 % 1015 hPa 0,0 l/m NW 3,1 km/h (1 Bft)
11.05.2006 03:00 7,4 C 90 % 1015 hPa 0,0 l/m N 0,0 km/h (0 Bft)
11.05.2006 04:00 6,3 C 91 % 1015 hPa 0,0 l/m N 0,0 km/h (0 Bft)
11.05.2006 05:00 5,6 C 92 % 1016 hPa 0,0 l/m N 0,0 km/h (0 Bft)
11.05.2006 06:00 5,3 C 93 % 1016 hPa 0,0 l/m N 0,0 km/h (0 Bft)
11.05.2006 07:00 6,8 C 95 % 1016 hPa 0,0 l/m N 0,0 km/h (0 Bft)
11.05.2006 08:00 9,9 C 89 % 1017 hPa 0,0 l/m O 1,6 km/h (1 Bft)
11.05.2006 09:00 13,1 C 68 % 1017 hPa 0,0 l/m N-NO 9,2 km/h (2 Bft)
11.05.2006 10:00 16,3 C 53 % 1017 hPa 0,0 l/m NO 11,9 km/h (2 Bft)
11.05.2006 11:00 18,3 C 37 % 1017 hPa 0,0 l/m O 19,5 km/h (3 Bft)
11.05.2006 12:00 19,2 C 34 % 1017 hPa 0,0 l/m O-NO 21,3 km/h (4 Bft)
11.05.2006 13:00 19,9 C 33 % 1017 hPa 0,0 l/m N-NO 17,9 km/h (3 Bft)
11.05.2006 14:00 20,1 C 31 % 1017 hPa 0,0 l/m N-NO 19,1 km/h (3 Bft)
11.05.2006 15:00 20,9 C 30 % 1016 hPa 0,0 l/m O 18,6 km/h (3 Bft)
11.05.2006 16:00 21,2 C 29 % 1016 hPa 0,0 l/m O-NO 16,8 km/h (3 Bft)
11.05.2006 17:00 20,9 C 30 % 1016 hPa 0,0 l/m O-NO 16,9 km/h (3 Bft)
11.05.2006 18:00 20,6 C 29 % 1016 hPa 0,0 l/m O 16,5 km/h (3 Bft)
11.05.2006 19:00 18,9 C 31 % 1016 hPa 0,0 l/m O 14,2 km/h (3 Bft)
11.05.2006 20:00 17,0 C 37 % 1016 hPa 0,0 l/m O-NO 6,0 km/h (2 Bft)
11.05.2006 21:00 13,6 C 48 % 1017 hPa 0,0 l/m N 0,0 km/h (0 Bft)
11.05.2006 22:00 11,1 C 55 % 1017 hPa 0,0 l/m N 0,0 km/h (0 Bft)
11.05.2006 23:00 9,7 C 59 % 1017 hPa 0,0 l/m W-NW 1,0 km/h (0 Bft)
12.05.2006 00:00 9,0 C 58 % 1017 hPa 0,0 l/m W-NW 0,4 km/h (0 Bft)
12.05.2006 01:00 8,8 C 58 % 1017 hPa 0,0 l/m W-NW 5,5 km/h (1 Bft)
12.05.2006 02:00 8,2 C 61 % 1017 hPa 0,0 l/m W-NW 4,0 km/h (1 Bft)
12.05.2006 03:00 7,1 C 67 % 1017 hPa 0,0 l/m N 0,0 km/h (0 Bft)
12.05.2006 04:00 5,8 C 73 % 1017 hPa 0,0 l/m N 0,0 km/h (0 Bft)
12.05.2006 05:00 5,0 C 78 % 1017 hPa 0,0 l/m N 0,0 km/h (0 Bft)
12.05.2006 06:00 4,7 C 81 % 1018 hPa 0,0 l/m N 0,0 km/h (0 Bft)
12.05.2006 07:00 6,1 C 84 % 1018 hPa 0,0 l/m N 0,0 km/h (0 Bft)
12.05.2006 08:00 9,2 C 76 % 1018 hPa 0,0 l/m S 3,0 km/h (1 Bft)
12.05.2006 09:00 13,4 C 61 % 1018 hPa 0,0 l/m S 8,5 km/h (2 Bft)
12.05.2006 10:00 17,6 C 49 % 1018 hPa 0,0 l/m O-SO 10,2 km/h (2 Bft)
12.05.2006 11:00 20,0 C 45 % 1018 hPa 0,0 l/m S 12,6 km/h (3 Bft)
12.05.2006 12:00 21,2 C 36 % 1018 hPa 0,0 l/m SW 15,6 km/h (3 Bft)
12.05.2006 13:00 22,1 C 34 % 1018 hPa 0,0 l/m S 16,6 km/h (3 Bft)
12.05.2006 14:00 22,8 C 29 % 1017 hPa 0,0 l/m W-SW 16,2 km/h (3 Bft)
12.05.2006 15:00 22,3 C 33 % 1017 hPa 0,0 l/m NW 14,5 km/h (3 Bft)
12.05.2006 16:00 22,5 C 32 % 1017 hPa 0,0 l/m W 11,4 km/h (2 Bft)
12.05.2006 17:00 22,8 C 26 % 1016 hPa 0,0 l/m W-SW 14,7 km/h (3 Bft)
12.05.2006 18:00 22,0 C 28 % 1016 hPa 0,0 l/m W-SW 12,4 km/h (3 Bft)
12.05.2006 19:00 21,1 C 29 % 1016 hPa 0,0 l/m W 7,9 km/h (2 Bft)
12.05.2006 20:00 19,3 C 34 % 1016 hPa 0,0 l/m W 5,9 km/h (2 Bft)
12.05.2006 21:00 17,4 C 42 % 1017 hPa 0,0 l/m W-NW 1,1 km/h (0 Bft)
12.05.2006 22:00 16,2 C 47 % 1017 hPa 0,0 l/m W 2,0 km/h (1 Bft)
12.05.2006 23:00 16,5 C 43 % 1017 hPa 0,0 l/m W 14,2 km/h (3 Bft)
13.05.2006 00:00 15,8 C 49 % 1018 hPa 0,0 l/m W-SW 14,7 km/h (3 Bft)
13.05.2006 01:00 15,2 C 51 % 1018 hPa 0,0 l/m W 13,0 km/h (3 Bft)
13.05.2006 02:00 14,3 C 58 % 1019 hPa 0,0 l/m W-SW 7,7 km/h (2 Bft)
13.05.2006 03:00 13,5 C 65 % 1019 hPa 0,0 l/m W-SW 6,9 km/h (2 Bft)
13.05.2006 04:00 12,0 C 81 % 1019 hPa 0,0 l/m W-SW 7,6 km/h (2 Bft)
13.05.2006 05:00 11,3 C 92 % 1019 hPa 0,0 l/m S-SW 8,7 km/h (2 Bft)
13.05.2006 06:00 11,1 C 97 % 1019 hPa 0,0 l/m S-SW 13,4 km/h (3 Bft)
13.05.2006 07:00 11,1 C 100 % 1020 hPa 0,0 l/m S-SW 13,1 km/h (3 Bft)
13.05.2006 08:00 11,6 C 100 % 1020 hPa 0,0 l/m S-SW 12,6 km/h (3 Bft)
13.05.2006 09:00 12,2 C 96 % 1020 hPa 0,0 l/m S-SW 12,6 km/h (3 Bft)
13.05.2006 10:00 13,9 C 80 % 1020 hPa 0,0 l/m SW 18,3 km/h (3 Bft)
13.05.2006 11:00 15,3 C 68 % 1020 hPa 0,0 l/m W-SW 17,6 km/h (3 Bft)
13.05.2006 12:00 16,9 C 59 % 1019 hPa 0,0 l/m S-SW 20,5 km/h (4 Bft)
13.05.2006 13:00 17,7 C 52 % 1019 hPa 0,0 l/m S-SW 19,2 km/h (3 Bft)
13.05.2006 14:00 19,1 C 48 % 1019 hPa 0,0 l/m SW 17,7 km/h (3 Bft)
13.05.2006 15:00 19,2 C 45 % 1019 hPa 0,0 l/m W-SW 15,1 km/h (3 Bft)
13.05.2006 16:00 19,3 C 44 % 1019 hPa 0,0 l/m W 12,1 km/h (2 Bft)
13.05.2006 17:00 19,8 C 42 % 1019 hPa 0,0 l/m S-SW 13,3 km/h (3 Bft)
13.05.2006 18:00 19,2 C 45 % 1019 hPa 0,0 l/m S-SW 6,6 km/h (2 Bft)
13.05.2006 19:00 18,2 C 49 % 1019 hPa 0,0 l/m W-SW 0,5 km/h (0 Bft)
13.05.2006 20:00 16,5 C 53 % 1019 hPa 0,0 l/m NW 8,8 km/h (2 Bft)
13.05.2006 21:00 14,4 C 55 % 1019 hPa 0,0 l/m NW 12,9 km/h (3 Bft)
13.05.2006 22:00 12,3 C 78 % 1019 hPa 0,0 l/m W 15,7 km/h (3 Bft)
13.05.2006 23:00 11,1 C 89 % 1019 hPa 0,0 l/m SW 8,8 km/h (2 Bft)
14.05.2006 00:00 10,8 C 95 % 1019 hPa 0,0 l/m SW 10,8 km/h (2 Bft)
14.05.2006 01:00 10,6 C 98 % 1019 hPa 0,0 l/m W-SW 12,6 km/h (3 Bft)
14.05.2006 02:00 10,4 C 99 % 1020 hPa 0,0 l/m SW 9,2 km/h (2 Bft)
14.05.2006 03:00 10,3 C 99 % 1020 hPa 0,0 l/m S-SW 11,4 km/h (2 Bft)
14.05.2006 04:00 10,1 C 99 % 1020 hPa 0,0 l/m S-SW 9,7 km/h (2 Bft)
14.05.2006 05:00 10,1 C 99 % 1020 hPa 0,0 l/m S-SW 9,4 km/h (2 Bft)
14.05.2006 06:00 10,0 C 99 % 1021 hPa 0,0 l/m S-SW 7,2 km/h (2 Bft)
14.05.2006 07:00 10,2 C 99 % 1021 hPa 0,0 l/m S-SW 5,6 km/h (1 Bft)
14.05.2006 08:00 10,5 C 100 % 1022 hPa 0,0 l/m W-SW 3,9 km/h (1 Bft)
14.05.2006 09:00 10,9 C 99 % 1022 hPa 0,0 l/m W-SW 3,3 km/h (1 Bft)
14.05.2006 10:00 12,2 C 93 % 1022 hPa 0,0 l/m W 7,5 km/h (2 Bft)
14.05.2006 11:00 14,1 C 76 % 1022 hPa 0,0 l/m W-SW 7,8 km/h (2 Bft)
14.05.2006 12:00 14,9 C 67 % 1022 hPa 0,0 l/m W-SW 6,5 km/h (2 Bft)
14.05.2006 13:00 15,1 C 69 % 1022 hPa 0,0 l/m S-SW 15,2 km/h (3 Bft)
14.05.2006 14:00 16,0 C 64 % 1022 hPa 0,0 l/m S-SW 16,6 km/h (3 Bft)
14.05.2006 15:00 15,0 C 70 % 1022 hPa 0,0 l/m S-SW 13,7 km/h (3 Bft)
14.05.2006 16:00 15,6 C 64 % 1021 hPa 0,0 l/m S 13,6 km/h (3 Bft)
14.05.2006 17:00 15,1 C 69 % 1021 hPa 0,0 l/m O 9,0 km/h (2 Bft)
14.05.2006 18:00 12,2 C 83 % 1021 hPa 0,0 l/m N 6,2 km/h (2 Bft)
14.05.2006 19:00 12,3 C 90 % 1021 hPa 0,0 l/m S 1,0 km/h (0 Bft)
14.05.2006 20:00 11,7 C 90 % 1021 hPa 0,0 l/m N 0,0 km/h (0 Bft)
14.05.2006 21:00 10,4 C 91 % 1021 hPa 0,0 l/m N 0,0 km/h (0 Bft)
14.05.2006 22:00 10,4 C 95 % 1021 hPa 0,0 l/m N 0,0 km/h (0 Bft)
14.05.2006 23:00 10,3 C 96 % 1021 hPa 0,0 l/m N 0,0 km/h (0 Bft)
Min-Datum _ 09.05.06 12.05.06 08.05.06 - - 08.05.06
_ Min-Zeit 08:35 17:07 00:00 - - 00:37
Minimum _ 4,4 C 25 % 0 hPa - - 0,0 km/h (0 Bft)
Max-Datum _ 12.05.06 10.05.06 14.05.06 08.05.06 - 09.05.06
_ Max-Zeit 14:38 01:52 08:47 00:00 - 05:02
Maximum _ 23,5 C 100 % 1022 hPa 0,0 l/m - 39,3 km/h
W-SW (6 Bft)
Durchschnitt _ 12,5 C 71 % 629 hPa #0,0 l/m S-SW 9,2 km/h (2 Bft)

Durchschnitt Minimum Temp.12,0 C
Durchschnitt Maximum Temp.13,1 C